sensor_id;sensor_type;location;lat;lon;timestamp;pressure;altitude;pressure_sealevel;temperature;humidity
82562;BME280;72228;51.208;10.468;2024-03-02T00:00:22;97989.13;;;5.48;89.52
82562;BME280;72228;51.208;10.468;2024-03-02T00:02:51;97981.31;;;5.42;89.97
82562;BME280;72228;51.208;10.468;2024-03-02T00:05:19;97980.38;;;5.32;90.92
82562;BME280;72228;51.208;10.468;2024-03-02T00:07:46;97978.88;;;5.40;90.54
82562;BME280;72228;51.208;10.468;2024-03-02T00:10:16;97979.88;;;5.30;90.80
82562;BME280;72228;51.208;10.468;2024-03-02T00:12:47;97976.13;;;5.26;91.51
82562;BME280;72228;51.208;10.468;2024-03-02T00:15:31;97976.22;;;5.21;91.58
82562;BME280;72228;51.208;10.468;2024-03-02T00:17:58;97975.13;;;5.22;91.99
82562;BME280;72228;51.208;10.468;2024-03-02T00:20:25;97972.56;;;5.12;91.67
82562;BME280;72228;51.208;10.468;2024-03-02T00:23:14;97975.44;;;5.07;92.08
82562;BME280;72228;51.208;10.468;2024-03-02T00:25:48;97980.09;;;5.20;91.83
82562;BME280;72228;51.208;10.468;2024-03-02T00:28:25;97974.31;;;5.22;91.96
82562;BME280;72228;51.208;10.468;2024-03-02T00:33:26;97975.31;;;5.12;92.33
82562;BME280;72228;51.208;10.468;2024-03-02T00:35:53;97979.09;;;5.02;92.31
82562;BME280;72228;51.208;10.468;2024-03-02T00:38:19;97977.56;;;4.96;92.04
82562;BME280;72228;51.208;10.468;2024-03-02T00:40:46;97972.38;;;4.95;92.36
82562;BME280;72228;51.208;10.468;2024-03-02T00:46:02;97972.56;;;4.84;92.71
82562;BME280;72228;51.208;10.468;2024-03-02T00:48:28;97973.50;;;4.80;93.54
82562;BME280;72228;51.208;10.468;2024-03-02T00:50:57;97979.28;;;4.78;93.15
82562;BME280;72228;51.208;10.468;2024-03-02T00:53:24;97972.38;;;4.81;93.88
82562;BME280;72228;51.208;10.468;2024-03-02T00:55:52;97980.31;;;4.82;93.66
82562;BME280;72228;51.208;10.468;2024-03-02T00:58:18;97984.75;;;4.78;93.06
82562;BME280;72228;51.208;10.468;2024-03-02T01:00:43;97985.88;;;4.77;93.55
82562;BME280;72228;51.208;10.468;2024-03-02T01:03:09;97980.41;;;4.77;93.43
82562;BME280;72228;51.208;10.468;2024-03-02T01:05:36;97979.09;;;4.75;93.98
82562;BME280;72228;51.208;10.468;2024-03-02T01:08:02;97984.56;;;4.75;93.63
82562;BME280;72228;51.208;10.468;2024-03-02T01:10:28;97979.09;;;4.89;93.43
82562;BME280;72228;51.208;10.468;2024-03-02T01:12:54;97980.31;;;4.82;93.34
82562;BME280;72228;51.208;10.468;2024-03-02T01:15:20;97985.06;;;4.77;93.55
82562;BME280;72228;51.208;10.468;2024-03-02T01:17:46;97990.06;;;4.75;93.40
82562;BME280;72228;51.208;10.468;2024-03-02T01:20:12;97989.03;;;4.84;93.46
82562;BME280;72228;51.208;10.468;2024-03-02T01:22:38;97984.78;;;5.06;92.84
82562;BME280;72228;51.208;10.468;2024-03-02T01:25:04;97978.50;;;4.92;92.23
82562;BME280;72228;51.208;10.468;2024-03-02T01:27:30;97984.59;;;4.89;92.57
82562;BME280;72228;51.208;10.468;2024-03-02T01:29:56;97982.84;;;4.79;92.92
82562;BME280;72228;51.208;10.468;2024-03-02T01:32:22;97984.88;;;4.73;94.10
82562;BME280;72228;51.208;10.468;2024-03-02T01:34:47;97979.88;;;4.62;93.76
82562;BME280;72228;51.208;10.468;2024-03-02T01:37:13;97985.16;;;4.58;94.42
82562;BME280;72228;51.208;10.468;2024-03-02T01:39:39;97984.75;;;4.51;94.50
82562;BME280;72228;51.208;10.468;2024-03-02T01:42:05;97984.56;;;4.61;94.13
82562;BME280;72228;51.208;10.468;2024-03-02T01:44:31;97982.81;;;4.65;94.53
82562;BME280;72228;51.208;10.468;2024-03-02T01:46:57;97991.28;;;4.82;93.57
82562;BME280;72228;51.208;10.468;2024-03-02T01:49:23;97989.53;;;4.73;93.17
82562;BME280;72228;51.208;10.468;2024-03-02T01:51:49;97995.53;;;4.61;93.76
82562;BME280;72228;51.208;10.468;2024-03-02T01:54:15;97987.19;;;4.52;93.95
82562;BME280;72228;51.208;10.468;2024-03-02T01:56:41;97984.75;;;4.51;94.11
82562;BME280;72228;51.208;10.468;2024-03-02T01:59:07;97989.63;;;4.54;94.47
82562;BME280;72228;51.208;10.468;2024-03-02T02:01:32;97989.69;;;4.49;94.02
82562;BME280;72228;51.208;10.468;2024-03-02T02:03:58;97986.75;;;4.45;94.40
82562;BME280;72228;51.208;10.468;2024-03-02T02:06:24;97990.63;;;4.44;94.64
82562;BME280;72228;51.208;10.468;2024-03-02T02:08:50;97978.31;;;4.42;94.56
82562;BME280;72228;51.208;10.468;2024-03-02T02:11:16;97975.16;;;4.35;94.79
82562;BME280;72228;51.208;10.468;2024-03-02T02:13:42;97981.25;;;4.32;95.04
82562;BME280;72228;51.208;10.468;2024-03-02T02:16:08;97978.91;;;4.25;95.32
82562;BME280;72228;51.208;10.468;2024-03-02T02:18:35;97974.38;;;4.15;95.20
82562;BME280;72228;51.208;10.468;2024-03-02T02:21:02;97975.13;;;4.21;95.74
82562;BME280;72228;51.208;10.468;2024-03-02T02:23:28;97977.81;;;4.40;95.25
82562;BME280;72228;51.208;10.468;2024-03-02T02:25:53;97972.63;;;4.38;95.25
82562;BME280;72228;51.208;10.468;2024-03-02T02:28:20;97966.72;;;4.31;95.29
82562;BME280;72228;51.208;10.468;2024-03-02T02:30:46;97965.19;;;4.39;95.05
82562;BME280;72228;51.208;10.468;2024-03-02T02:33:12;97968.19;;;4.23;94.82
82562;BME280;72228;51.208;10.468;2024-03-02T02:35:37;97962.03;;;4.32;95.07
82562;BME280;72228;51.208;10.468;2024-03-02T02:38:04;97965.53;;;4.18;95.23
82562;BME280;72228;51.208;10.468;2024-03-02T02:40:30;97963.72;;;4.14;95.99
82562;BME280;72228;51.208;10.468;2024-03-02T02:42:56;97960.16;;;4.13;95.63
82562;BME280;72228;51.208;10.468;2024-03-02T02:45:22;97960.66;;;4.15;96.07
82562;BME280;72228;51.208;10.468;2024-03-02T02:47:49;97958.63;;;4.07;95.82
82562;BME280;72228;51.208;10.468;2024-03-02T02:50:15;97960.66;;;4.15;95.62
82562;BME280;72228;51.208;10.468;2024-03-02T02:52:42;97959.63;;;4.11;95.91
82562;BME280;72228;51.208;10.468;2024-03-02T02:55:09;97960.63;;;4.01;95.61
82562;BME280;72228;51.208;10.468;2024-03-02T02:57:37;97959.22;;;4.04;95.93
82562;BME280;72228;51.208;10.468;2024-03-02T03:00:11;97950.06;;;3.95;95.79
82562;BME280;72228;51.208;10.468;2024-03-02T03:02:45;97953.81;;;3.99;96.24
82562;BME280;72228;51.208;10.468;2024-03-02T03:05:29;97947.38;;;3.90;96.43
82562;BME280;72228;51.208;10.468;2024-03-02T03:07:55;97941.47;;;3.83;96.43
82562;BME280;72228;51.208;10.468;2024-03-02T03:10:21;97949.78;;;3.78;97.02
82562;BME280;72228;51.208;10.468;2024-03-02T03:12:48;97943.84;;;3.70;96.56
82562;BME280;72228;51.208;10.468;2024-03-02T03:15:14;97946.06;;;3.68;97.35
82562;BME280;72228;51.208;10.468;2024-03-02T03:17:41;97944.38;;;3.72;97.55
82562;BME280;72228;51.208;10.468;2024-03-02T03:20:08;97943.41;;;3.63;97.73
82562;BME280;72228;51.208;10.468;2024-03-02T03:22:39;97937.19;;;3.58;98.04
82562;BME280;72228;51.208;10.468;2024-03-02T03:25:06;97936.28;;;3.62;98.02
82562;BME280;72228;51.208;10.468;2024-03-02T03:27:33;97937.25;;;3.71;98.34
82562;BME280;72228;51.208;10.468;2024-03-02T03:29:59;97950.66;;;3.73;98.06
82562;BME280;72228;51.208;10.468;2024-03-02T03:32:25;97946.81;;;3.74;97.95
82562;BME280;72228;51.208;10.468;2024-03-02T03:34:51;97941.94;;;3.71;98.09
82562;BME280;72228;51.208;10.468;2024-03-02T03:37:17;97940.50;;;3.73;97.80
82562;BME280;72228;51.208;10.468;2024-03-02T03:39:42;97941.63;;;3.72;98.45
82562;BME280;72228;51.208;10.468;2024-03-02T03:42:08;97940.88;;;3.67;98.05
82562;BME280;72228;51.208;10.468;2024-03-02T03:44:34;97939.78;;;3.68;98.02
82562;BME280;72228;51.208;10.468;2024-03-02T03:47:00;97938.97;;;3.67;98.05
82562;BME280;72228;51.208;10.468;2024-03-02T03:49:27;97941.34;;;3.55;98.21
82562;BME280;72228;51.208;10.468;2024-03-02T03:51:53;97935.94;;;3.50;98.10
82562;BME280;72228;51.208;10.468;2024-03-02T03:54:19;97943.56;;;3.53;98.62
82562;BME280;72228;51.208;10.468;2024-03-02T03:56:45;97938.38;;;3.52;98.90
82562;BME280;72228;51.208;10.468;2024-03-02T03:59:11;97937.03;;;3.49;98.83
82562;BME280;72228;51.208;10.468;2024-03-02T04:01:37;97941.41;;;3.50;99.14
82562;BME280;72228;51.208;10.468;2024-03-02T04:04:03;97940.22;;;3.37;99.03
82562;BME280;72228;51.208;10.468;2024-03-02T04:06:29;97940.28;;;3.32;98.83
82562;BME280;72228;51.208;10.468;2024-03-02T04:08:58;97933.19;;;3.31;99.44
82562;BME280;72228;51.208;10.468;2024-03-02T04:11:30;97931.50;;;3.35;99.58
82562;BME280;72228;51.208;10.468;2024-03-02T04:13:56;97939.47;;;3.32;99.57
82562;BME280;72228;51.208;10.468;2024-03-02T04:16:22;97931.31;;;3.27;99.83
82562;BME280;72228;51.208;10.468;2024-03-02T04:18:48;97940.34;;;3.27;100.00
82562;BME280;72228;51.208;10.468;2024-03-02T04:21:14;97946.88;;;3.31;99.98
82562;BME280;72228;51.208;10.468;2024-03-02T04:23:40;97951.91;;;3.24;99.94
82562;BME280;72228;51.208;10.468;2024-03-02T04:26:05;97951.03;;;3.29;100.00
82562;BME280;72228;51.208;10.468;2024-03-02T04:28:31;97949.75;;;3.21;100.00
82562;BME280;72228;51.208;10.468;2024-03-02T04:30:58;97951.63;;;3.26;100.00
82562;BME280;72228;51.208;10.468;2024-03-02T04:33:24;97959.97;;;3.15;100.00
82562;BME280;72228;51.208;10.468;2024-03-02T04:35:50;97955.59;;;3.14;100.00
82562;BME280;72228;51.208;10.468;2024-03-02T04:38:16;97958.34;;;3.14;100.00
82562;BME280;72228;51.208;10.468;2024-03-02T04:40:41;97958.63;;;3.13;100.00
82562;BME280;72228;51.208;10.468;2024-03-02T04:43:07;97966.03;;;3.12;100.00
82562;BME280;72228;51.208;10.468;2024-03-02T04:45:53;97969.34;;;3.09;100.00
82562;BME280;72228;51.208;10.468;2024-03-02T04:48:19;97967.09;;;3.16;100.00
82562;BME280;72228;51.208;10.468;2024-03-02T04:50:45;97962.81;;;3.29;100.00
82562;BME280;72228;51.208;10.468;2024-03-02T04:53:11;97973.69;;;3.34;100.00
82562;BME280;72228;51.208;10.468;2024-03-02T04:55:37;97962.31;;;3.46;100.00
82562;BME280;72228;51.208;10.468;2024-03-02T04:58:05;97963.88;;;3.52;100.00
82562;BME280;72228;51.208;10.468;2024-03-02T05:00:32;97965.13;;;3.41;100.00
82562;BME280;72228;51.208;10.468;2024-03-02T05:02:58;97960.31;;;3.70;99.68
82562;BME280;72228;51.208;10.468;2024-03-02T05:05:24;97958.75;;;3.64;99.44
82562;BME280;72228;51.208;10.468;2024-03-02T05:07:50;97964.66;;;3.71;99.58
82562;BME280;72228;51.208;10.468;2024-03-02T05:10:16;97963.31;;;3.69;99.06
82562;BME280;72228;51.208;10.468;2024-03-02T05:12:41;97962.56;;;3.82;99.53
82562;BME280;72228;51.208;10.468;2024-03-02T05:15:11;97963.97;;;3.98;98.32
82562;BME280;72228;51.208;10.468;2024-03-02T05:17:41;97968.19;;;3.91;97.55
82562;BME280;72228;51.208;10.468;2024-03-02T05:20:10;97968.97;;;3.78;97.69
82562;BME280;72228;51.208;10.468;2024-03-02T05:22:37;97975.63;;;3.71;98.00
82562;BME280;72228;51.208;10.468;2024-03-02T05:25:04;97980.13;;;3.62;98.14
82562;BME280;72228;51.208;10.468;2024-03-02T05:27:30;97985.69;;;3.57;98.35
82562;BME280;72228;51.208;10.468;2024-03-02T05:30:01;97985.19;;;3.55;98.93
82562;BME280;72228;51.208;10.468;2024-03-02T05:32:27;97983.63;;;3.49;99.01
82562;BME280;72228;51.208;10.468;2024-03-02T05:34:53;97984.75;;;3.48;98.86
82562;BME280;72228;51.208;10.468;2024-03-02T05:37:19;97986.59;;;3.53;99.33
82562;BME280;72228;51.208;10.468;2024-03-02T05:39:45;97987.53;;;3.43;99.67
82562;BME280;72228;51.208;10.468;2024-03-02T05:42:11;97982.81;;;3.48;99.65
82562;BME280;72228;51.208;10.468;2024-03-02T05:44:37;97988.16;;;3.40;99.55
82562;BME280;72228;51.208;10.468;2024-03-02T05:47:03;97993.16;;;3.33;100.00
82562;BME280;72228;51.208;10.468;2024-03-02T05:49:29;97989.66;;;3.27;100.00
82562;BME280;72228;51.208;10.468;2024-03-02T05:51:56;97995.13;;;3.27;100.00
82562;BME280;72228;51.208;10.468;2024-03-02T05:54:21;97995.38;;;3.31;100.00
82562;BME280;72228;51.208;10.468;2024-03-02T05:56:47;97992.56;;;3.17;100.00
82562;BME280;72228;51.208;10.468;2024-03-02T05:59:13;97996.09;;;3.17;100.00
82562;BME280;72228;51.208;10.468;2024-03-02T06:01:40;98006.25;;;3.17;100.00
82562;BME280;72228;51.208;10.468;2024-03-02T06:04:07;98002.41;;;3.18;100.00
82562;BME280;72228;51.208;10.468;2024-03-02T06:06:33;98000.53;;;3.13;100.00
82562;BME280;72228;51.208;10.468;2024-03-02T06:09:03;98007.81;;;2.99;100.00
82562;BME280;72228;51.208;10.468;2024-03-02T06:11:34;98009.59;;;2.85;99.94
82562;BME280;72228;51.208;10.468;2024-03-02T06:14:00;97994.34;;;2.79;99.91
82562;BME280;72228;51.208;10.468;2024-03-02T06:16:26;98002.66;;;2.74;100.00
82562;BME280;72228;51.208;10.468;2024-03-02T06:18:52;98006.72;;;2.76;100.00
82562;BME280;72228;51.208;10.468;2024-03-02T06:21:38;98011.94;;;2.73;100.00
82562;BME280;72228;51.208;10.468;2024-03-02T06:24:09;98000.53;;;2.65;100.00
82562;BME280;72228;51.208;10.468;2024-03-02T06:26:37;98012.63;;;2.59;100.00
82562;BME280;72228;51.208;10.468;2024-03-02T06:29:05;98002.16;;;2.66;100.00
82562;BME280;72228;51.208;10.468;2024-03-02T06:31:31;98006.16;;;2.79;100.00
82562;BME280;72228;51.208;10.468;2024-03-02T06:34:04;98008.44;;;2.91;100.00
82562;BME280;72228;51.208;10.468;2024-03-02T06:36:39;98009.00;;;2.93;100.00
82562;BME280;72228;51.208;10.468;2024-03-02T06:39:08;98016.97;;;3.13;100.00
82562;BME280;72228;51.208;10.468;2024-03-02T06:41:35;98015.22;;;3.22;100.00
82562;BME280;72228;51.208;10.468;2024-03-02T06:44:02;98022.53;;;3.27;100.00
82562;BME280;72228;51.208;10.468;2024-03-02T06:46:36;98025.44;;;3.36;100.00
82562;BME280;72228;51.208;10.468;2024-03-02T06:49:08;98024.28;;;3.42;100.00
82562;BME280;72228;51.208;10.468;2024-03-02T06:51:37;98024.41;;;3.50;99.58
82562;BME280;72228;51.208;10.468;2024-03-02T06:54:04;98022.13;;;3.58;99.33
82562;BME280;72228;51.208;10.468;2024-03-02T06:56:31;98031.03;;;3.68;99.33
82562;BME280;72228;51.208;10.468;2024-03-02T06:59:08;98031.41;;;3.81;98.60
82562;BME280;72228;51.208;10.468;2024-03-02T07:01:48;98025.78;;;3.91;98.28
82562;BME280;72228;51.208;10.468;2024-03-02T07:04:24;98021.53;;;3.98;97.46
82562;BME280;72228;51.208;10.468;2024-03-02T07:06:51;98023.69;;;4.20;96.64
82562;BME280;72228;51.208;10.468;2024-03-02T07:09:17;98029.66;;;4.22;95.82
82562;BME280;72228;51.208;10.468;2024-03-02T07:11:43;98030.09;;;4.29;95.16
82562;BME280;72228;51.208;10.468;2024-03-02T07:14:14;98029.84;;;4.45;95.41
82562;BME280;72228;51.208;10.468;2024-03-02T07:16:42;98035.53;;;4.48;95.17
82562;BME280;72228;51.208;10.468;2024-03-02T07:19:11;98039.06;;;4.68;94.16
82562;BME280;72228;51.208;10.468;2024-03-02T07:21:37;98037.47;;;4.80;93.52
82562;BME280;72228;51.208;10.468;2024-03-02T07:24:04;98039.31;;;4.99;91.15
82562;BME280;72228;51.208;10.468;2024-03-02T07:26:32;98046.66;;;5.31;89.88
82562;BME280;72228;51.208;10.468;2024-03-02T07:28:58;98050.00;;;5.42;89.77
82562;BME280;72228;51.208;10.468;2024-03-02T07:31:24;98051.75;;;5.37;89.37
82562;BME280;72228;51.208;10.468;2024-03-02T07:33:50;98046.16;;;5.43;88.79
82562;BME280;72228;51.208;10.468;2024-03-02T07:36:16;98046.34;;;5.32;90.07
82562;BME280;72228;51.208;10.468;2024-03-02T07:38:42;98051.34;;;5.30;90.48
82562;BME280;72228;51.208;10.468;2024-03-02T07:41:10;98057.06;;;5.34;90.37
82562;BME280;72228;51.208;10.468;2024-03-02T07:43:36;98056.84;;;5.30;89.84
82562;BME280;72228;51.208;10.468;2024-03-02T07:46:03;98058.25;;;5.14;90.21
82562;BME280;72228;51.208;10.468;2024-03-02T07:48:28;98064.38;;;5.11;90.88
82562;BME280;72228;51.208;10.468;2024-03-02T07:50:54;98073.41;;;5.25;90.29
82562;BME280;72228;51.208;10.468;2024-03-02T07:53:20;98062.75;;;5.24;90.39
82562;BME280;72228;51.208;10.468;2024-03-02T07:55:46;98067.28;;;5.15;90.11
82562;BME280;72228;51.208;10.468;2024-03-02T07:58:12;98065.59;;;5.19;90.29
82562;BME280;72228;51.208;10.468;2024-03-02T08:00:39;98063.97;;;5.18;90.69
82562;BME280;72228;51.208;10.468;2024-03-02T08:03:06;98064.16;;;5.21;90.32
82562;BME280;72228;51.208;10.468;2024-03-02T08:05:32;98065.09;;;5.30;90.50
82562;BME280;72228;51.208;10.468;2024-03-02T08:07:58;98072.09;;;5.36;89.45
82562;BME280;72228;51.208;10.468;2024-03-02T08:10:24;98069.03;;;5.52;88.87
82562;BME280;72228;51.208;10.468;2024-03-02T08:12:50;98062.13;;;5.54;89.21
82562;BME280;72228;51.208;10.468;2024-03-02T08:15:16;98075.34;;;5.66;88.71
82562;BME280;72228;51.208;10.468;2024-03-02T08:17:42;98075.25;;;5.57;88.92
82562;BME280;72228;51.208;10.468;2024-03-02T08:20:11;98072.59;;;5.66;88.54
82562;BME280;72228;51.208;10.468;2024-03-02T08:22:37;98071.75;;;5.93;87.68
82562;BME280;72228;51.208;10.468;2024-03-02T08:25:04;98072.66;;;6.02;87.13
82562;BME280;72228;51.208;10.468;2024-03-02T08:27:31;98078.34;;;6.20;87.14
82562;BME280;72228;51.208;10.468;2024-03-02T08:29:57;98081.38;;;6.18;86.38
82562;BME280;72228;51.208;10.468;2024-03-02T08:32:23;98084.03;;;6.45;86.13
82562;BME280;72228;51.208;10.468;2024-03-02T08:34:49;98084.59;;;6.79;84.74
82562;BME280;72228;51.208;10.468;2024-03-02T08:37:15;98085.50;;;6.96;83.49
82562;BME280;72228;51.208;10.468;2024-03-02T08:39:41;98078.09;;;7.37;81.88
82562;BME280;72228;51.208;10.468;2024-03-02T08:42:07;98085.75;;;7.97;79.55
82562;BME280;72228;51.208;10.468;2024-03-02T08:44:33;98080.75;;;8.42;77.15
82562;BME280;72228;51.208;10.468;2024-03-02T08:46:59;98071.00;;;9.64;74.10
82562;BME280;72228;51.208;10.468;2024-03-02T08:49:25;98075.69;;;10.32;70.50
82562;BME280;72228;51.208;10.468;2024-03-02T08:51:51;98079.34;;;11.80;65.78
82562;BME280;72228;51.208;10.468;2024-03-02T08:54:23;98073.56;;;12.91;60.84
82562;BME280;72228;51.208;10.468;2024-03-02T08:56:49;98067.19;;;13.34;59.65
82562;BME280;72228;51.208;10.468;2024-03-02T08:59:16;98073.16;;;13.64;58.34
82562;BME280;72228;51.208;10.468;2024-03-02T09:01:42;98070.25;;;14.08;57.43
82562;BME280;72228;51.208;10.468;2024-03-02T09:04:08;98072.97;;;13.57;58.56
82562;BME280;72228;51.208;10.468;2024-03-02T09:06:34;98071.75;;;12.82;60.61
82562;BME280;72228;51.208;10.468;2024-03-02T09:09:00;98066.88;;;13.35;58.89
82562;BME280;72228;51.208;10.468;2024-03-02T09:11:26;98060.66;;;13.42;60.16
82562;BME280;72228;51.208;10.468;2024-03-02T09:13:52;98069.09;;;13.02;60.58
82562;BME280;72228;51.208;10.468;2024-03-02T09:16:19;98073.31;;;12.27;63.52
82562;BME280;72228;51.208;10.468;2024-03-02T09:18:45;98079.28;;;12.42;62.82
82562;BME280;72228;51.208;10.468;2024-03-02T09:21:11;98072.94;;;12.29;62.78
82562;BME280;72228;51.208;10.468;2024-03-02T09:23:37;98078.88;;;11.78;64.33
82562;BME280;72228;51.208;10.468;2024-03-02T09:26:04;98074.84;;;11.06;66.78
82562;BME280;72228;51.208;10.468;2024-03-02T09:28:29;98080.94;;;10.66;69.63
82562;BME280;72228;51.208;10.468;2024-03-02T09:30:55;98084.25;;;9.88;71.99
82562;BME280;72228;51.208;10.468;2024-03-02T09:33:21;98074.75;;;10.19;71.45
82562;BME280;72228;51.208;10.468;2024-03-02T09:35:47;98083.06;;;9.98;72.00
82562;BME280;72228;51.208;10.468;2024-03-02T09:38:14;98081.25;;;10.02;72.81
82562;BME280;72228;51.208;10.468;2024-03-02T09:40:41;98086.44;;;9.74;73.13
82562;BME280;72228;51.208;10.468;2024-03-02T09:43:07;98090.81;;;10.05;72.84
82562;BME280;72228;51.208;10.468;2024-03-02T09:45:33;98091.81;;;10.30;72.30
82562;BME280;72228;51.208;10.468;2024-03-02T09:47:59;98090.75;;;10.64;70.81
82562;BME280;72228;51.208;10.468;2024-03-02T09:50:25;98094.69;;;10.63;71.67
82562;BME280;72228;51.208;10.468;2024-03-02T09:52:52;98092.28;;;10.73;70.83
82562;BME280;72228;51.208;10.468;2024-03-02T09:55:19;98096.00;;;10.98;70.49
82562;BME280;72228;51.208;10.468;2024-03-02T09:57:45;98087.28;;;10.67;71.01
82562;BME280;72228;51.208;10.468;2024-03-02T10:00:12;98095.22;;;10.56;71.96
82562;BME280;72228;51.208;10.468;2024-03-02T10:02:41;98088.63;;;10.82;71.18
82562;BME280;72228;51.208;10.468;2024-03-02T10:05:10;98086.56;;;10.58;71.78
82562;BME280;72228;51.208;10.468;2024-03-02T10:07:36;98086.94;;;10.89;70.39
82562;BME280;72228;51.208;10.468;2024-03-02T10:10:15;98087.44;;;11.04;69.33
82562;BME280;72228;51.208;10.468;2024-03-02T10:12:41;98086.13;;;10.89;69.02
82562;BME280;72228;51.208;10.468;2024-03-02T10:15:07;98095.97;;;11.44;67.95
82562;BME280;72228;51.208;10.468;2024-03-02T10:17:35;98087.00;;;11.14;67.35
82562;BME280;72228;51.208;10.468;2024-03-02T10:20:22;98094.75;;;11.78;66.34
82562;BME280;72228;51.208;10.468;2024-03-02T10:22:49;98092.75;;;11.42;66.84
82562;BME280;72228;51.208;10.468;2024-03-02T10:25:31;98090.03;;;12.03;64.23
82562;BME280;72228;51.208;10.468;2024-03-02T10:27:58;98091.41;;;12.09;63.02
82562;BME280;72228;51.208;10.468;2024-03-02T10:30:28;98088.09;;;12.44;63.82
82562;BME280;72228;51.208;10.468;2024-03-02T10:32:55;98090.25;;;11.98;64.75
82562;BME280;72228;51.208;10.468;2024-03-02T10:35:22;98087.66;;;11.80;63.85
82562;BME280;72228;51.208;10.468;2024-03-02T10:37:52;98085.72;;;11.93;65.16
82562;BME280;72228;51.208;10.468;2024-03-02T10:40:21;98085.31;;;11.34;66.53
82562;BME280;72228;51.208;10.468;2024-03-02T10:42:47;98089.03;;;11.50;65.67
82562;BME280;72228;51.208;10.468;2024-03-02T10:45:15;98090.66;;;11.51;66.48
82562;BME280;72228;51.208;10.468;2024-03-02T10:47:46;98095.25;;;11.22;64.88
82562;BME280;72228;51.208;10.468;2024-03-02T10:50:12;98093.34;;;11.60;65.29
82562;BME280;72228;51.208;10.468;2024-03-02T10:52:38;98091.19;;;11.90;62.73
82562;BME280;72228;51.208;10.468;2024-03-02T10:55:14;98091.97;;;12.15;61.88
82562;BME280;72228;51.208;10.468;2024-03-02T10:57:54;98094.53;;;11.83;62.31
82562;BME280;72228;51.208;10.468;2024-03-02T11:00:24;98094.16;;;11.60;62.69
82562;BME280;72228;51.208;10.468;2024-03-02T11:03:06;98094.88;;;11.81;61.98
82562;BME280;72228;51.208;10.468;2024-03-02T11:05:38;98089.44;;;11.85;62.73
82562;BME280;72228;51.208;10.468;2024-03-02T11:08:08;98089.66;;;11.92;61.99
82562;BME280;72228;51.208;10.468;2024-03-02T11:10:45;98082.34;;;12.12;61.63
82562;BME280;72228;51.208;10.468;2024-03-02T11:13:14;98084.44;;;12.27;61.25
82562;BME280;72228;51.208;10.468;2024-03-02T11:15:43;98085.72;;;12.18;61.54
82562;BME280;72228;51.208;10.468;2024-03-02T11:18:10;98071.41;;;12.56;60.56
82562;BME280;72228;51.208;10.468;2024-03-02T11:20:38;98075.09;;;12.88;60.04
82562;BME280;72228;51.208;10.468;2024-03-02T11:23:08;98082.22;;;12.33;60.97
82562;BME280;72228;51.208;10.468;2024-03-02T11:25:35;98082.81;;;12.67;61.20
82562;BME280;72228;51.208;10.468;2024-03-02T11:28:03;98081.63;;;12.68;60.22
82562;BME280;72228;51.208;10.468;2024-03-02T11:33:07;98078.69;;;12.48;60.84
82562;BME280;72228;51.208;10.468;2024-03-02T11:35:38;98073.41;;;12.99;59.30
82562;BME280;72228;51.208;10.468;2024-03-02T11:38:09;98072.00;;;12.77;59.08
82562;BME280;72228;51.208;10.468;2024-03-02T11:40:35;98068.56;;;13.56;57.71
82562;BME280;72228;51.208;10.468;2024-03-02T11:43:01;98068.38;;;13.64;57.97
82562;BME280;72228;51.208;10.468;2024-03-02T11:45:28;98066.03;;;14.33;56.32
82562;BME280;72228;51.208;10.468;2024-03-02T11:47:55;98060.50;;;15.11;52.68
82562;BME280;72228;51.208;10.468;2024-03-02T11:50:34;98047.97;;;14.82;53.56
82562;BME280;72228;51.208;10.468;2024-03-02T11:53:01;98056.63;;;13.71;55.72
82562;BME280;72228;51.208;10.468;2024-03-02T11:55:28;98054.28;;;14.43;54.62
82562;BME280;72228;51.208;10.468;2024-03-02T11:57:55;98047.63;;;15.48;52.32
82562;BME280;72228;51.208;10.468;2024-03-02T12:00:22;98046.47;;;15.72;50.24
82562;BME280;72228;51.208;10.468;2024-03-02T12:03:03;98046.06;;;15.97;49.38
82562;BME280;72228;51.208;10.468;2024-03-02T12:05:30;98048.00;;;15.70;49.73
82562;BME280;72228;51.208;10.468;2024-03-02T12:08:00;98046.22;;;15.16;50.78
82562;BME280;72228;51.208;10.468;2024-03-02T12:10:27;98037.75;;;14.89;51.99
82562;BME280;72228;51.208;10.468;2024-03-02T12:13:00;98031.44;;;14.73;52.06
82562;BME280;72228;51.208;10.468;2024-03-02T12:15:31;98037.94;;;14.07;54.43
82562;BME280;72228;51.208;10.468;2024-03-02T12:17:58;98025.69;;;14.27;53.70
82562;BME280;72228;51.208;10.468;2024-03-02T12:20:27;98027.13;;;13.86;53.91
82562;BME280;72228;51.208;10.468;2024-03-02T12:22:57;98015.38;;;14.31;53.22
82562;BME280;72228;51.208;10.468;2024-03-02T12:25:24;98015.25;;;14.43;52.74
82562;BME280;72228;51.208;10.468;2024-03-02T12:27:55;98016.09;;;13.74;53.40
82562;BME280;72228;51.208;10.468;2024-03-02T12:30:22;98007.63;;;14.21;50.84
82562;BME280;72228;51.208;10.468;2024-03-02T12:32:48;98004.72;;;14.53;51.51
82562;BME280;72228;51.208;10.468;2024-03-02T12:35:15;98016.16;;;14.86;51.33
82562;BME280;72228;51.208;10.468;2024-03-02T12:40:14;98018.78;;;14.40;51.99
82562;BME280;72228;51.208;10.468;2024-03-02T12:42:44;98017.34;;;14.66;51.78
82562;BME280;72228;51.208;10.468;2024-03-02T12:45:11;98005.28;;;14.23;52.01
82562;BME280;72228;51.208;10.468;2024-03-02T12:47:39;98005.69;;;14.25;51.67
82562;BME280;72228;51.208;10.468;2024-03-02T12:50:07;98018.88;;;13.89;53.25
82562;BME280;72228;51.208;10.468;2024-03-02T12:52:34;98001.91;;;14.14;53.15
82562;BME280;72228;51.208;10.468;2024-03-02T12:55:01;98009.16;;;13.83;53.90
82562;BME280;72228;51.208;10.468;2024-03-02T12:57:30;98006.63;;;14.13;53.24
82562;BME280;72228;51.208;10.468;2024-03-02T13:02:30;98005.69;;;14.06;53.72
82562;BME280;72228;51.208;10.468;2024-03-02T13:04:58;98004.88;;;14.05;54.36
82562;BME280;72228;51.208;10.468;2024-03-02T13:07:24;97998.13;;;14.61;51.92
82562;BME280;72228;51.208;10.468;2024-03-02T13:09:51;97993.97;;;14.93;49.48